Nettlenker
 
METAR
2020/10/27 12:20 ENCN 271220Z 14005KT 9999 SCT009 BKN018 10/09 Q0992
TAF
2020/10/27 12:36 TAF TAF ENCN 271100Z 2712/2720 16008KT 9999 -SHRA FEW010 BKN030 TEMPO 2712/2718 4000 SHRA BR BKN008 SCT015CB BECMG 2712/2714 23012KT
LN-KFK
Operativ VFR-natt
VFR dag
07:50 - 18:31
Brannvakt
Inaktiv
Banner
Banner
Banner
Banner
Banner